Nearby METAR Reports

 

KAWO - Arlington Muni, Washington, USA
Distance from station: WSW 26mi, 42km
Updated: Tue, 16-Sep-2014 6:15am PDT
Clear
Clear
 Wind from N
Wind: N 6 mph , 9 km/h
Temperature: 52°F , 11°C
Dew Point: 46°F , 8°C
Humidity: 82%
Barometer: 29.91 inHg , 1012.9 hPa
Clouds: Clear
Visibility: 10 miles , 16 km
2014/09/16 13:15 KAWO 161315Z AUTO 35005KT 10SM CLR 11/08 A2991 RMK AO1
KPAE - Everett, Washington, USA
Distance from station: SW 39mi, 62km
Updated: Tue, 16-Sep-2014 5:53am PDT
Clear
Clear
 Wind from ESE
Wind: ESE 3 mph , 6 km/h
Temperature: 59°F , 15°C
Dew Point: 52°F , 11°C
Humidity: 77%
Barometer: 29.88 inHg , 1011.9 hPa
Clouds: Clear
Visibility: 10 miles , 16 km
2014/09/16 12:53 KPAE 161253Z AUTO 11003KT 10SM CLR 15/11 A2988 RMK AO2 SLP115 T01500106
 
KBVS - Burlington/Mt V, Washington, USA
Distance from station: WNW 40mi, 64km
Updated: Wed, 31-Dec-1969 4:00pm PST
NOT Current
unable to load KBVS data RC=
unable to load KBVS data RC=
 
KNUW - Whidbey Is. Nas, Washington, USA
Distance from station: W 48mi, 78km
Updated: Tue, 16-Sep-2014 5:56am PDT
Mostly cloudy
Mostly cloudy
 Wind from SE
Wind: SE 8 mph , 13 km/h
Temperature: 54°F , 12°C
Dew Point: 46°F , 8°C
Humidity: 77%
Barometer: 29.88 inHg , 1011.9 hPa
Clouds: Mostly cloudy
Visibility: 10 miles , 16 km
Cloud details: Few Clouds 6000 ft
Partly cloudy 14000 ft
Mostly cloudy 25000 ft
2014/09/16 12:56 KNUW 161256Z 14007KT 10SM FEW060 SCT140 BKN250 12/08 A2988 RMK AO2 SLP120 T01170078
 
KBLI - Bellingham, Washington, USA
Distance from station: NW 57mi, 91km
Updated: Tue, 16-Sep-2014 5:53am PDT
Clear
Clear
 Wind from S
Wind: S 6 mph , 9 km/h
Temperature: 55°F , 13°C
Dew Point: 52°F , 11°C
Humidity: 88%
Barometer: 29.85 inHg , 1010.8 hPa
Clouds: Clear
Visibility: 10 miles , 16 km
2014/09/16 12:53 KBLI 161253Z AUTO 17005KT 10SM CLR 13/11 A2985 RMK AO2 SLP112 P0001 T01330111
KBFI - Seattle/Boeing, Washington, USA
Distance from station: SW 58mi, 94km
Updated: Tue, 16-Sep-2014 5:53am PDT
Partly cloudy
Partly cloudy
 Wind from SSE
Wind: SSE 9 mph , 15 km/h
Temperature: 61°F , 16°C
Dew Point: 54°F , 12°C
Humidity: 77%
Barometer: 29.88 inHg , 1011.9 hPa
Clouds: Partly cloudy
Visibility: 10 miles , 16 km
Cloud details: Partly cloudy 12000 ft
2014/09/16 12:53 KBFI 161253Z 15008KT 10SM SCT120 16/12 A2988 RMK AO2 SLP116 T01610117